Terminal Aerodrome Forecast
Issued by NWS Charleston, WV

Current Version | Previous Version | Graphics & Text | Print | Product List | Glossary On
Versions: 1 2 3 4 5 6 7 8 9 10 11 12 13 14 15 16 17 18 19 20 21 22 23 24 25 26 27 28 29 30
000
FTUS41 KRLX 202100 AAB
TAFPKB
TAF AMD
KPKB 202101Z 2021/2118 18005KT P6SM OVC090
     FM210500 00000KT 4SM BR SCT045
     FM210700 00000KT 2SM BR SCT001
     FM210800 00000KT 1/4SM FG OVC001
     FM211300 00000KT 4SM BR SCT040
     FM211400 00000KT P6SM SCT040=

USA.gov is the U.S. government's official web portal to all federal, state and local government web resources and services.